Etusivu
METAR-TAF:

METAR-TAF

Lentoasemat :

Frankfurt am Mainin lentoasema

Frankfurt, Saksa

Leveyspiiri: 50-03N, Pituuspiiri: 008-36E, korkeus merenpinnasta: 111 m

Tämänhetkinen sää

Tämä raportti tehtiin 24 minuuttia sitten, kello 15.50 UTC
Tuuli 7 kn pohjoisesta, vaihdellen luoteen ja koillisen välillä
Lämpötila 16°C
Kosteus 34%
Ilmanpaine 1031 hPa
Näkyvyys 10 km tai enemmän
ei pilviä alle 1500 m:ssä eikä cumulonimbus-pilviä

METAR: EDDF 211550Z 36007KT 310V050 CAVOK 16/00 Q1031 NOSIG

Aika: 17:14 (16:14 UTC)

Sääennuste

Tämä raportti tehtiin 5 tuntia ja 14 minuuttia sitten, kello 11.00 UTC
Ennuste voimassa 21. päivästä klo 12 UTC - 22. päivään klo 18 UTC
Tuuli 5 kn koillisesta
Näkyvyys 10 km tai enemmän
ei pilviä alle 1500 m:ssä eikä cumulonimbus-pilviä
Tulossa
22. päivästä klo 14 UTC - 22. päivään klo 16 UTC
Tuuli 5 kn etelästä/kaakosta

TAF: EDDF 211100Z 2112/2218 05005KT CAVOK BECMG 2214/2216 15005KT

Säähavainnot ja -ennusteet yli 4000 lentoasemalta (METAR- ja TAF-raportit).

Käytössä olevat sääasemat on merkitty karttaan keltaisilla ja punaisilla pisteillä.

Aseta hiiri pisteen päälle nähdäksesi sääaseman nimen.

Klikkaa sitten nähdäksesi säähavainnot ja -ennusteet.

Kartan vaihtaminen: klikkaa mustalla rastilla varustettuja vihreitä pisteitä, niin voit zoomata sisään; viivalla varustettua vihreää pistettä, niin voit zoomata ulos tai vihreitä nuolia, niin pääset viereisille kartoille.


METAR-TAF: